sensor_id;sensor_type;location;lat;lon;timestamp;temperature;humidity
7958;DHT22;4024;52.172;5.378;2022-12-18T00:00:46;0.10;99.90
7958;DHT22;4024;52.172;5.378;2022-12-18T00:03:13;0.00;99.90
7958;DHT22;4024;52.172;5.378;2022-12-18T00:05:49;0.00;99.90
7958;DHT22;4024;52.172;5.378;2022-12-18T00:08:19;0.00;99.90
7958;DHT22;4024;52.172;5.378;2022-12-18T00:10:45;0.10;99.90
7958;DHT22;4024;52.172;5.378;2022-12-18T00:13:11;0.10;99.90
7958;DHT22;4024;52.172;5.378;2022-12-18T00:15:38;0.10;99.90
7958;DHT22;4024;52.172;5.378;2022-12-18T00:18:04;0.10;99.90
7958;DHT22;4024;52.172;5.378;2022-12-18T00:20:31;0.10;99.90
7958;DHT22;4024;52.172;5.378;2022-12-18T00:22:56;0.10;99.90
7958;DHT22;4024;52.172;5.378;2022-12-18T00:25:22;0.00;99.90
7958;DHT22;4024;52.172;5.378;2022-12-18T00:27:48;0.00;99.90
7958;DHT22;4024;52.172;5.378;2022-12-18T00:30:14;-0.10;99.90
7958;DHT22;4024;52.172;5.378;2022-12-18T00:32:40;-0.10;99.90
7958;DHT22;4024;52.172;5.378;2022-12-18T00:35:06;-0.10;99.90
7958;DHT22;4024;52.172;5.378;2022-12-18T00:37:34;-0.10;99.90
7958;DHT22;4024;52.172;5.378;2022-12-18T00:40:00;-0.10;99.90
7958;DHT22;4024;52.172;5.378;2022-12-18T00:42:25;-0.20;99.90
7958;DHT22;4024;52.172;5.378;2022-12-18T00:45:10;-0.20;99.90
7958;DHT22;4024;52.172;5.378;2022-12-18T00:47:35;-0.30;99.90
7958;DHT22;4024;52.172;5.378;2022-12-18T00:50:01;-0.30;99.90
7958;DHT22;4024;52.172;5.378;2022-12-18T00:52:27;-0.30;99.90
7958;DHT22;4024;52.172;5.378;2022-12-18T00:54:53;-0.30;99.90
7958;DHT22;4024;52.172;5.378;2022-12-18T00:57:18;-0.40;99.90
7958;DHT22;4024;52.172;5.378;2022-12-18T00:59:44;-0.40;99.90
7958;DHT22;4024;52.172;5.378;2022-12-18T01:02:13;-0.40;99.90
7958;DHT22;4024;52.172;5.378;2022-12-18T01:04:39;-0.40;99.90
7958;DHT22;4024;52.172;5.378;2022-12-18T01:07:04;-0.50;99.90
7958;DHT22;4024;52.172;5.378;2022-12-18T01:09:30;-0.50;99.90
7958;DHT22;4024;52.172;5.378;2022-12-18T01:11:55;-0.50;99.90
7958;DHT22;4024;52.172;5.378;2022-12-18T01:14:22;-0.50;99.90
7958;DHT22;4024;52.172;5.378;2022-12-18T01:16:48;-0.50;99.90
7958;DHT22;4024;52.172;5.378;2022-12-18T01:19:13;-0.50;99.90
7958;DHT22;4024;52.172;5.378;2022-12-18T01:21:39;-0.50;99.90
7958;DHT22;4024;52.172;5.378;2022-12-18T01:24:06;-0.50;99.90
7958;DHT22;4024;52.172;5.378;2022-12-18T01:26:32;-0.50;99.90
7958;DHT22;4024;52.172;5.378;2022-12-18T01:28:58;-0.50;99.90
7958;DHT22;4024;52.172;5.378;2022-12-18T01:31:26;-0.50;99.90
7958;DHT22;4024;52.172;5.378;2022-12-18T01:33:52;-0.50;99.90
7958;DHT22;4024;52.172;5.378;2022-12-18T01:36:27;-0.50;99.90
7958;DHT22;4024;52.172;5.378;2022-12-18T01:38:53;-0.60;99.90
7958;DHT22;4024;52.172;5.378;2022-12-18T01:41:22;-0.60;99.90
7958;DHT22;4024;52.172;5.378;2022-12-18T01:43:56;-0.60;99.90
7958;DHT22;4024;52.172;5.378;2022-12-18T01:46:24;-0.60;99.90
7958;DHT22;4024;52.172;5.378;2022-12-18T01:48:59;-0.60;99.90
7958;DHT22;4024;52.172;5.378;2022-12-18T01:51:27;-0.60;99.90
7958;DHT22;4024;52.172;5.378;2022-12-18T01:53:53;-0.70;99.90
7958;DHT22;4024;52.172;5.378;2022-12-18T01:56:20;-0.70;99.90
7958;DHT22;4024;52.172;5.378;2022-12-18T01:59:00;-0.80;99.90
7958;DHT22;4024;52.172;5.378;2022-12-18T02:01:29;-0.80;99.90
7958;DHT22;4024;52.172;5.378;2022-12-18T02:03:55;-0.80;99.90
7958;DHT22;4024;52.172;5.378;2022-12-18T02:06:33;-0.80;99.90
7958;DHT22;4024;52.172;5.378;2022-12-18T02:09:23;-0.90;99.90
7958;DHT22;4024;52.172;5.378;2022-12-18T02:12:17;-0.90;99.90
7958;DHT22;4024;52.172;5.378;2022-12-18T02:17:50;-0.90;99.90
7958;DHT22;4024;52.172;5.378;2022-12-18T02:20:37;-0.90;99.90
7958;DHT22;4024;52.172;5.378;2022-12-18T02:23:12;-0.90;99.90
7958;DHT22;4024;52.172;5.378;2022-12-18T02:28:20;-1.00;99.90
7958;DHT22;4024;52.172;5.378;2022-12-18T02:30:49;-1.00;99.90
7958;DHT22;4024;52.172;5.378;2022-12-18T02:33:17;-1.00;99.90
7958;DHT22;4024;52.172;5.378;2022-12-18T02:35:45;-1.00;99.90
7958;DHT22;4024;52.172;5.378;2022-12-18T02:38:12;-1.00;99.90
7958;DHT22;4024;52.172;5.378;2022-12-18T02:40:40;-1.00;99.90
7958;DHT22;4024;52.172;5.378;2022-12-18T02:43:13;-1.00;99.90
7958;DHT22;4024;52.172;5.378;2022-12-18T02:45:55;-1.00;99.90
7958;DHT22;4024;52.172;5.378;2022-12-18T02:48:24;-1.00;99.90
7958;DHT22;4024;52.172;5.378;2022-12-18T02:51:18;-1.00;99.90
7958;DHT22;4024;52.172;5.378;2022-12-18T02:54:00;-1.10;99.90
7958;DHT22;4024;52.172;5.378;2022-12-18T02:56:51;-1.10;99.90
7958;DHT22;4024;52.172;5.378;2022-12-18T02:59:30;-1.10;99.90
7958;DHT22;4024;52.172;5.378;2022-12-18T03:02:03;-1.10;99.90
7958;DHT22;4024;52.172;5.378;2022-12-18T03:04:53;-1.10;99.90
7958;DHT22;4024;52.172;5.378;2022-12-18T03:07:30;-1.10;99.90
7958;DHT22;4024;52.172;5.378;2022-12-18T03:10:00;-1.10;99.90
7958;DHT22;4024;52.172;5.378;2022-12-18T03:12:37;-1.10;99.90
7958;DHT22;4024;52.172;5.378;2022-12-18T03:15:19;-1.20;99.90
7958;DHT22;4024;52.172;5.378;2022-12-18T03:17:52;-1.20;99.90
7958;DHT22;4024;52.172;5.378;2022-12-18T03:20:22;-1.20;99.90
7958;DHT22;4024;52.172;5.378;2022-12-18T03:22:52;-1.20;99.90
7958;DHT22;4024;52.172;5.378;2022-12-18T03:25:19;-1.20;99.90
7958;DHT22;4024;52.172;5.378;2022-12-18T03:27:51;-1.20;99.90
7958;DHT22;4024;52.172;5.378;2022-12-18T03:30:18;-1.30;99.90
7958;DHT22;4024;52.172;5.378;2022-12-18T03:32:51;-1.20;99.90
7958;DHT22;4024;52.172;5.378;2022-12-18T03:35:21;-1.30;99.90
7958;DHT22;4024;52.172;5.378;2022-12-18T03:37:48;-1.30;99.90
7958;DHT22;4024;52.172;5.378;2022-12-18T03:40:14;-1.30;99.90
7958;DHT22;4024;52.172;5.378;2022-12-18T03:42:49;-1.30;99.90
7958;DHT22;4024;52.172;5.378;2022-12-18T03:45:32;-1.30;99.90
7958;DHT22;4024;52.172;5.378;2022-12-18T03:48:03;-1.30;99.90
7958;DHT22;4024;52.172;5.378;2022-12-18T03:51:02;-1.30;99.90
7958;DHT22;4024;52.172;5.378;2022-12-18T03:53:43;-1.40;99.90
7958;DHT22;4024;52.172;5.378;2022-12-18T03:56:14;-1.40;99.90
7958;DHT22;4024;52.172;5.378;2022-12-18T03:58:41;-1.40;99.90
7958;DHT22;4024;52.172;5.378;2022-12-18T04:01:10;-1.40;99.90
7958;DHT22;4024;52.172;5.378;2022-12-18T04:03:37;-1.40;99.90
7958;DHT22;4024;52.172;5.378;2022-12-18T04:06:05;-1.50;99.90
7958;DHT22;4024;52.172;5.378;2022-12-18T04:08:31;-1.50;99.90
7958;DHT22;4024;52.172;5.378;2022-12-18T04:10:59;-1.50;99.90
7958;DHT22;4024;52.172;5.378;2022-12-18T04:13:29;-1.50;99.90
7958;DHT22;4024;52.172;5.378;2022-12-18T04:15:55;-1.50;99.90
7958;DHT22;4024;52.172;5.378;2022-12-18T04:18:21;-1.60;99.90
7958;DHT22;4024;52.172;5.378;2022-12-18T04:20:46;-1.60;99.90
7958;DHT22;4024;52.172;5.378;2022-12-18T04:23:12;-1.60;99.90
7958;DHT22;4024;52.172;5.378;2022-12-18T04:25:37;-1.60;99.90
7958;DHT22;4024;52.172;5.378;2022-12-18T04:28:03;-1.60;99.90
7958;DHT22;4024;52.172;5.378;2022-12-18T04:30:29;-1.60;99.90
7958;DHT22;4024;52.172;5.378;2022-12-18T04:32:54;-1.60;99.90
7958;DHT22;4024;52.172;5.378;2022-12-18T04:35:20;-1.70;99.90
7958;DHT22;4024;52.172;5.378;2022-12-18T04:37:45;-1.70;99.90
7958;DHT22;4024;52.172;5.378;2022-12-18T04:40:11;-1.70;99.90
7958;DHT22;4024;52.172;5.378;2022-12-18T04:42:39;-1.70;99.90
7958;DHT22;4024;52.172;5.378;2022-12-18T04:45:05;-1.70;99.90
7958;DHT22;4024;52.172;5.378;2022-12-18T04:47:30;-1.70;99.90
7958;DHT22;4024;52.172;5.378;2022-12-18T04:49:56;-1.70;99.90
7958;DHT22;4024;52.172;5.378;2022-12-18T04:52:21;-1.70;99.90
7958;DHT22;4024;52.172;5.378;2022-12-18T04:54:47;-1.80;99.90
7958;DHT22;4024;52.172;5.378;2022-12-18T04:57:13;-1.80;99.90
7958;DHT22;4024;52.172;5.378;2022-12-18T04:59:38;-1.80;99.90
7958;DHT22;4024;52.172;5.378;2022-12-18T05:02:04;-1.80;99.90
7958;DHT22;4024;52.172;5.378;2022-12-18T05:04:29;-1.80;99.90
7958;DHT22;4024;52.172;5.378;2022-12-18T05:06:55;-1.80;99.90
7958;DHT22;4024;52.172;5.378;2022-12-18T05:09:21;-1.80;99.90
7958;DHT22;4024;52.172;5.378;2022-12-18T05:11:46;-1.80;99.90
7958;DHT22;4024;52.172;5.378;2022-12-18T05:14:12;-1.80;99.90
7958;DHT22;4024;52.172;5.378;2022-12-18T05:16:38;-1.80;99.90
7958;DHT22;4024;52.172;5.378;2022-12-18T05:19:03;-1.80;99.90
7958;DHT22;4024;52.172;5.378;2022-12-18T05:21:29;-1.80;99.90
7958;DHT22;4024;52.172;5.378;2022-12-18T05:23:54;-1.80;99.90
7958;DHT22;4024;52.172;5.378;2022-12-18T05:26:20;-1.80;99.90
7958;DHT22;4024;52.172;5.378;2022-12-18T05:28:46;-1.80;99.90
7958;DHT22;4024;52.172;5.378;2022-12-18T05:31:12;-1.80;99.90
7958;DHT22;4024;52.172;5.378;2022-12-18T05:33:38;-1.80;99.90
7958;DHT22;4024;52.172;5.378;2022-12-18T05:36:06;-1.80;99.90
7958;DHT22;4024;52.172;5.378;2022-12-18T05:38:35;-1.80;99.90
7958;DHT22;4024;52.172;5.378;2022-12-18T05:41:02;-1.80;99.90
7958;DHT22;4024;52.172;5.378;2022-12-18T05:43:28;-1.90;99.90
7958;DHT22;4024;52.172;5.378;2022-12-18T05:45:54;-1.90;99.90
7958;DHT22;4024;52.172;5.378;2022-12-18T05:48:21;-1.90;99.90
7958;DHT22;4024;52.172;5.378;2022-12-18T05:50:48;-1.90;99.90
7958;DHT22;4024;52.172;5.378;2022-12-18T05:53:16;-1.90;99.90
7958;DHT22;4024;52.172;5.378;2022-12-18T05:55:43;-1.90;99.90
7958;DHT22;4024;52.172;5.378;2022-12-18T05:58:10;-1.90;99.90
7958;DHT22;4024;52.172;5.378;2022-12-18T06:00:37;-1.90;99.90
7958;DHT22;4024;52.172;5.378;2022-12-18T06:03:11;-1.90;99.90
7958;DHT22;4024;52.172;5.378;2022-12-18T06:05:42;-1.90;99.90
7958;DHT22;4024;52.172;5.378;2022-12-18T06:08:10;-1.90;99.90
7958;DHT22;4024;52.172;5.378;2022-12-18T06:10:36;-1.90;99.90
7958;DHT22;4024;52.172;5.378;2022-12-18T06:13:02;-2.00;99.90
7958;DHT22;4024;52.172;5.378;2022-12-18T06:15:28;-1.90;99.90
7958;DHT22;4024;52.172;5.378;2022-12-18T06:17:54;-1.90;99.90
7958;DHT22;4024;52.172;5.378;2022-12-18T06:20:20;-1.90;99.90
7958;DHT22;4024;52.172;5.378;2022-12-18T06:22:46;-2.00;99.90
7958;DHT22;4024;52.172;5.378;2022-12-18T06:25:11;-2.00;99.90
7958;DHT22;4024;52.172;5.378;2022-12-18T06:27:37;-2.00;99.90
7958;DHT22;4024;52.172;5.378;2022-12-18T06:30:05;-2.00;99.90
7958;DHT22;4024;52.172;5.378;2022-12-18T06:32:31;-2.00;99.90
7958;DHT22;4024;52.172;5.378;2022-12-18T06:34:57;-2.10;99.90
7958;DHT22;4024;52.172;5.378;2022-12-18T06:37:22;-2.10;99.90
7958;DHT22;4024;52.172;5.378;2022-12-18T06:39:52;-2.10;99.90
7958;DHT22;4024;52.172;5.378;2022-12-18T06:42:18;-2.20;99.90
7958;DHT22;4024;52.172;5.378;2022-12-18T06:44:43;-2.20;99.90
7958;DHT22;4024;52.172;5.378;2022-12-18T06:47:09;-2.20;99.90
7958;DHT22;4024;52.172;5.378;2022-12-18T06:49:35;-2.20;99.90
7958;DHT22;4024;52.172;5.378;2022-12-18T06:52:00;-2.20;99.90
7958;DHT22;4024;52.172;5.378;2022-12-18T06:54:26;-2.30;99.90
7958;DHT22;4024;52.172;5.378;2022-12-18T06:56:52;-2.30;99.90
7958;DHT22;4024;52.172;5.378;2022-12-18T06:59:17;-2.30;99.90
7958;DHT22;4024;52.172;5.378;2022-12-18T07:01:43;-2.30;99.90
7958;DHT22;4024;52.172;5.378;2022-12-18T07:04:08;-2.30;99.90
7958;DHT22;4024;52.172;5.378;2022-12-18T07:06:34;-2.30;99.90
7958;DHT22;4024;52.172;5.378;2022-12-18T07:09:00;-2.30;99.90
7958;DHT22;4024;52.172;5.378;2022-12-18T07:11:25;-2.30;99.90
7958;DHT22;4024;52.172;5.378;2022-12-18T07:13:52;-2.40;99.90
7958;DHT22;4024;52.172;5.378;2022-12-18T07:16:20;-2.40;99.90
7958;DHT22;4024;52.172;5.378;2022-12-18T07:18:46;-2.40;99.90
7958;DHT22;4024;52.172;5.378;2022-12-18T07:21:14;-2.40;99.90
7958;DHT22;4024;52.172;5.378;2022-12-18T07:23:40;-2.40;99.90
7958;DHT22;4024;52.172;5.378;2022-12-18T07:26:08;-2.40;99.90
7958;DHT22;4024;52.172;5.378;2022-12-18T07:28:35;-2.40;99.90
7958;DHT22;4024;52.172;5.378;2022-12-18T07:31:09;-2.50;99.90
7958;DHT22;4024;52.172;5.378;2022-12-18T07:33:35;-2.50;99.90
7958;DHT22;4024;52.172;5.378;2022-12-18T07:36:03;-2.50;99.90
7958;DHT22;4024;52.172;5.378;2022-12-18T07:38:30;-2.50;99.90
7958;DHT22;4024;52.172;5.378;2022-12-18T07:41:08;-2.50;99.90
7958;DHT22;4024;52.172;5.378;2022-12-18T07:43:35;-2.50;99.90
7958;DHT22;4024;52.172;5.378;2022-12-18T07:46:01;-2.50;99.90
7958;DHT22;4024;52.172;5.378;2022-12-18T07:48:28;-2.50;99.90
7958;DHT22;4024;52.172;5.378;2022-12-18T07:50:54;-2.50;99.90
7958;DHT22;4024;52.172;5.378;2022-12-18T07:53:23;-2.50;99.90
7958;DHT22;4024;52.172;5.378;2022-12-18T07:55:48;-2.50;99.90
7958;DHT22;4024;52.172;5.378;2022-12-18T07:58:14;-2.50;99.90
7958;DHT22;4024;52.172;5.378;2022-12-18T08:00:39;-2.50;99.90
7958;DHT22;4024;52.172;5.378;2022-12-18T08:03:05;-2.50;99.90
7958;DHT22;4024;52.172;5.378;2022-12-18T08:05:30;-2.50;99.90
7958;DHT22;4024;52.172;5.378;2022-12-18T08:07:58;-2.50;99.90
7958;DHT22;4024;52.172;5.378;2022-12-18T08:10:24;-2.50;99.90
7958;DHT22;4024;52.172;5.378;2022-12-18T08:12:50;-2.50;99.90
7958;DHT22;4024;52.172;5.378;2022-12-18T08:15:16;-2.40;99.90
7958;DHT22;4024;52.172;5.378;2022-12-18T08:17:42;-2.40;99.90
7958;DHT22;4024;52.172;5.378;2022-12-18T08:20:08;-2.40;99.90
7958;DHT22;4024;52.172;5.378;2022-12-18T08:22:37;-2.40;99.90
7958;DHT22;4024;52.172;5.378;2022-12-18T08:25:04;-2.40;99.90
7958;DHT22;4024;52.172;5.378;2022-12-18T08:27:30;-2.30;99.90
7958;DHT22;4024;52.172;5.378;2022-12-18T08:29:56;-2.30;99.90
7958;DHT22;4024;52.172;5.378;2022-12-18T08:32:22;-2.30;99.90
7958;DHT22;4024;52.172;5.378;2022-12-18T08:34:48;-2.30;99.90
7958;DHT22;4024;52.172;5.378;2022-12-18T08:37:13;-2.20;99.90
7958;DHT22;4024;52.172;5.378;2022-12-18T08:39:39;-2.20;99.90
7958;DHT22;4024;52.172;5.378;2022-12-18T08:42:04;-2.20;99.90
7958;DHT22;4024;52.172;5.378;2022-12-18T08:44:49;-2.10;99.90
7958;DHT22;4024;52.172;5.378;2022-12-18T08:47:14;-2.10;99.90
7958;DHT22;4024;52.172;5.378;2022-12-18T08:49:40;-2.10;99.90
7958;DHT22;4024;52.172;5.378;2022-12-18T08:52:06;-2.10;99.90
7958;DHT22;4024;52.172;5.378;2022-12-18T08:54:31;-2.10;99.90
7958;DHT22;4024;52.172;5.378;2022-12-18T08:56:58;-2.00;99.90
7958;DHT22;4024;52.172;5.378;2022-12-18T08:59:23;-2.00;99.90
7958;DHT22;4024;52.172;5.378;2022-12-18T09:01:49;-2.00;99.90
7958;DHT22;4024;52.172;5.378;2022-12-18T09:04:15;-1.90;99.90
7958;DHT22;4024;52.172;5.378;2022-12-18T09:06:41;-1.90;99.90
7958;DHT22;4024;52.172;5.378;2022-12-18T09:09:06;-1.90;99.90
7958;DHT22;4024;52.172;5.378;2022-12-18T09:11:32;-1.80;99.90
7958;DHT22;4024;52.172;5.378;2022-12-18T09:13:59;-1.80;99.90
7958;DHT22;4024;52.172;5.378;2022-12-18T09:16:27;-1.80;99.90
7958;DHT22;4024;52.172;5.378;2022-12-18T09:18:54;-1.80;99.90
7958;DHT22;4024;52.172;5.378;2022-12-18T09:21:26;-1.70;99.90
7958;DHT22;4024;52.172;5.378;2022-12-18T09:23:54;-1.70;99.90
7958;DHT22;4024;52.172;5.378;2022-12-18T09:26:21;-1.60;99.90
7958;DHT22;4024;52.172;5.378;2022-12-18T09:28:47;-1.60;99.90
7958;DHT22;4024;52.172;5.378;2022-12-18T09:31:16;-1.50;99.90
7958;DHT22;4024;52.172;5.378;2022-12-18T09:33:42;-1.50;99.90
7958;DHT22;4024;52.172;5.378;2022-12-18T09:36:10;-1.40;99.90
7958;DHT22;4024;52.172;5.378;2022-12-18T09:38:36;-1.40;99.90
7958;DHT22;4024;52.172;5.378;2022-12-18T09:41:33;-1.30;99.90
7958;DHT22;4024;52.172;5.378;2022-12-18T09:44:10;-1.30;99.90
7958;DHT22;4024;52.172;5.378;2022-12-18T09:46:39;-1.30;99.90
7958;DHT22;4024;52.172;5.378;2022-12-18T09:49:12;-1.20;99.90
7958;DHT22;4024;52.172;5.378;2022-12-18T09:54:33;-1.10;99.90
7958;DHT22;4024;52.172;5.378;2022-12-18T09:57:01;-1.00;99.90
7958;DHT22;4024;52.172;5.378;2022-12-18T09:59:32;-1.00;99.90
7958;DHT22;4024;52.172;5.378;2022-12-18T10:02:19;-0.90;99.90
7958;DHT22;4024;52.172;5.378;2022-12-18T10:04:56;-0.90;99.90
7958;DHT22;4024;52.172;5.378;2022-12-18T10:07:39;-0.90;99.90
7958;DHT22;4024;52.172;5.378;2022-12-18T10:10:18;-0.80;99.90
7958;DHT22;4024;52.172;5.378;2022-12-18T10:13:05;-0.70;99.90
7958;DHT22;4024;52.172;5.378;2022-12-18T10:18:32;-0.60;99.90
7958;DHT22;4024;52.172;5.378;2022-12-18T10:21:13;-0.50;99.90
7958;DHT22;4024;52.172;5.378;2022-12-18T10:24:20;-0.50;99.90
7958;DHT22;4024;52.172;5.378;2022-12-18T10:26:49;-0.40;99.90
7958;DHT22;4024;52.172;5.378;2022-12-18T10:29:17;-0.30;99.90
7958;DHT22;4024;52.172;5.378;2022-12-18T10:31:42;-0.30;99.90
7958;DHT22;4024;52.172;5.378;2022-12-18T10:34:14;-0.20;99.90
7958;DHT22;4024;52.172;5.378;2022-12-18T10:36:40;-0.20;99.90
7958;DHT22;4024;52.172;5.378;2022-12-18T10:39:22;-0.20;99.90
7958;DHT22;4024;52.172;5.378;2022-12-18T10:41:51;-0.10;99.90
7958;DHT22;4024;52.172;5.378;2022-12-18T10:44:21;0.00;99.90
7958;DHT22;4024;52.172;5.378;2022-12-18T10:46:53;0.00;99.90
7958;DHT22;4024;52.172;5.378;2022-12-18T10:49:30;0.10;99.90
7958;DHT22;4024;52.172;5.378;2022-12-18T10:52:17;0.10;99.90
7958;DHT22;4024;52.172;5.378;2022-12-18T10:54:55;0.20;99.90
7958;DHT22;4024;52.172;5.378;2022-12-18T10:59:59;0.30;99.90
7958;DHT22;4024;52.172;5.378;2022-12-18T11:02:36;0.30;99.90
7958;DHT22;4024;52.172;5.378;2022-12-18T11:05:03;0.40;99.90
7958;DHT22;4024;52.172;5.378;2022-12-18T11:07:50;0.40;99.90
7958;DHT22;4024;52.172;5.378;2022-12-18T11:10:17;0.40;99.90
7958;DHT22;4024;52.172;5.378;2022-12-18T11:12:44;0.50;99.90
7958;DHT22;4024;52.172;5.378;2022-12-18T11:15:36;0.50;99.90
7958;DHT22;4024;52.172;5.378;2022-12-18T11:18:02;0.60;99.90
7958;DHT22;4024;52.172;5.378;2022-12-18T11:20:34;0.60;99.90
7958;DHT22;4024;52.172;5.378;2022-12-18T11:23:05;0.60;99.90
7958;DHT22;4024;52.172;5.378;2022-12-18T11:25:36;0.70;99.90
7958;DHT22;4024;52.172;5.378;2022-12-18T11:28:04;0.70;99.90
7958;DHT22;4024;52.172;5.378;2022-12-18T11:30:32;0.70;99.90
7958;DHT22;4024;52.172;5.378;2022-12-18T11:33:21;0.80;99.90
7958;DHT22;4024;52.172;5.378;2022-12-18T11:35:48;0.80;99.90
7958;DHT22;4024;52.172;5.378;2022-12-18T11:38:32;0.90;99.90
7958;DHT22;4024;52.172;5.378;2022-12-18T11:41:07;0.90;99.90
7958;DHT22;4024;52.172;5.378;2022-12-18T11:43:56;1.00;99.90
7958;DHT22;4024;52.172;5.378;2022-12-18T11:46:32;1.00;99.90
7958;DHT22;4024;52.172;5.378;2022-12-18T11:49:15;1.00;99.90
7958;DHT22;4024;52.172;5.378;2022-12-18T11:54:34;1.10;99.90
7958;DHT22;4024;52.172;5.378;2022-12-18T12:00:07;1.20;99.90
7958;DHT22;4024;52.172;5.378;2022-12-18T12:02:47;1.20;99.90
7958;DHT22;4024;52.172;5.378;2022-12-18T12:05:33;1.30;99.90
7958;DHT22;4024;52.172;5.378;2022-12-18T12:10:42;1.30;99.90
7958;DHT22;4024;52.172;5.378;2022-12-18T12:16:32;1.40;99.90
7958;DHT22;4024;52.172;5.378;2022-12-18T12:19:36;1.40;99.90
7958;DHT22;4024;52.172;5.378;2022-12-18T12:22:18;1.40;99.90
7958;DHT22;4024;52.172;5.378;2022-12-18T12:24:56;1.50;99.90
7958;DHT22;4024;52.172;5.378;2022-12-18T12:27:47;1.50;99.90
7958;DHT22;4024;52.172;5.378;2022-12-18T12:30:21;1.50;99.90
7958;DHT22;4024;52.172;5.378;2022-12-18T12:32:57;1.50;99.90
7958;DHT22;4024;52.172;5.378;2022-12-18T12:35:58;1.60;99.90
7958;DHT22;4024;52.172;5.378;2022-12-18T12:38:24;1.60;99.90
7958;DHT22;4024;52.172;5.378;2022-12-18T12:41:02;1.60;99.90
7958;DHT22;4024;52.172;5.378;2022-12-18T12:43:38;1.60;99.90
7958;DHT22;4024;52.172;5.378;2022-12-18T12:46:09;1.70;99.90
7958;DHT22;4024;52.172;5.378;2022-12-18T12:48:56;1.70;99.90
7958;DHT22;4024;52.172;5.378;2022-12-18T12:51:33;1.70;99.90
7958;DHT22;4024;52.172;5.378;2022-12-18T12:54:01;1.70;99.90
7958;DHT22;4024;52.172;5.378;2022-12-18T12:56:43;1.70;99.90
7958;DHT22;4024;52.172;5.378;2022-12-18T12:59:21;1.70;99.90
7958;DHT22;4024;52.172;5.378;2022-12-18T13:02:10;1.80;99.90
7958;DHT22;4024;52.172;5.378;2022-12-18T13:15:44;1.90;99.90
7958;DHT22;4024;52.172;5.378;2022-12-18T13:18:14;1.90;99.90
7958;DHT22;4024;52.172;5.378;2022-12-18T13:20:43;1.90;99.90
7958;DHT22;4024;52.172;5.378;2022-12-18T13:23:26;2.00;99.90
7958;DHT22;4024;52.172;5.378;2022-12-18T13:38:23;2.10;99.90
7958;DHT22;4024;52.172;5.378;2022-12-18T13:40:59;2.10;99.90
7958;DHT22;4024;52.172;5.378;2022-12-18T13:43:33;2.10;99.90
7958;DHT22;4024;52.172;5.378;2022-12-18T13:51:26;2.10;99.90
7958;DHT22;4024;52.172;5.378;2022-12-18T13:54:02;2.10;99.90
7958;DHT22;4024;52.172;5.378;2022-12-18T13:56:32;2.10;99.90
7958;DHT22;4024;52.172;5.378;2022-12-18T13:59:20;2.10;99.90
7958;DHT22;4024;52.172;5.378;2022-12-18T14:01:53;2.20;99.90
7958;DHT22;4024;52.172;5.378;2022-12-18T14:04:22;2.20;99.90
7958;DHT22;4024;52.172;5.378;2022-12-18T14:06:50;2.20;99.90
7958;DHT22;4024;52.172;5.378;2022-12-18T14:09:18;2.20;99.90
7958;DHT22;4024;52.172;5.378;2022-12-18T14:11:49;2.20;99.90
7958;DHT22;4024;52.172;5.378;2022-12-18T14:14:17;2.20;99.90
7958;DHT22;4024;52.172;5.378;2022-12-18T14:16:43;2.20;99.90
7958;DHT22;4024;52.172;5.378;2022-12-18T14:19:16;2.20;99.90
7958;DHT22;4024;52.172;5.378;2022-12-18T14:21:46;2.20;99.90
7958;DHT22;4024;52.172;5.378;2022-12-18T14:24:18;2.30;99.90
7958;DHT22;4024;52.172;5.378;2022-12-18T14:26:44;2.30;99.90
7958;DHT22;4024;52.172;5.378;2022-12-18T14:29:30;2.30;99.90
7958;DHT22;4024;52.172;5.378;2022-12-18T14:32:19;2.30;99.90
7958;DHT22;4024;52.172;5.378;2022-12-18T14:34:53;2.30;99.90
7958;DHT22;4024;52.172;5.378;2022-12-18T14:37:26;2.30;99.90
7958;DHT22;4024;52.172;5.378;2022-12-18T14:39:59;2.30;99.90
7958;DHT22;4024;52.172;5.378;2022-12-18T14:42:27;2.30;99.90
7958;DHT22;4024;52.172;5.378;2022-12-18T14:47:57;2.40;99.90
7958;DHT22;4024;52.172;5.378;2022-12-18T14:50:22;2.40;99.90
7958;DHT22;4024;52.172;5.378;2022-12-18T14:52:48;2.40;99.90
7958;DHT22;4024;52.172;5.378;2022-12-18T14:55:18;2.40;99.90
7958;DHT22;4024;52.172;5.378;2022-12-18T14:57:45;2.40;99.90
7958;DHT22;4024;52.172;5.378;2022-12-18T15:00:19;2.40;99.90
7958;DHT22;4024;52.172;5.378;2022-12-18T15:02:55;2.40;99.90
7958;DHT22;4024;52.172;5.378;2022-12-18T15:05:31;2.40;99.90
7958;DHT22;4024;52.172;5.378;2022-12-18T15:07:59;2.40;99.90
7958;DHT22;4024;52.172;5.378;2022-12-18T15:10:30;2.40;99.90
7958;DHT22;4024;52.172;5.378;2022-12-18T15:20:56;2.40;99.90
7958;DHT22;4024;52.172;5.378;2022-12-18T15:23:38;2.40;99.90
7958;DHT22;4024;52.172;5.378;2022-12-18T15:26:13;2.40;99.90
7958;DHT22;4024;52.172;5.378;2022-12-18T15:28:58;2.40;99.90
7958;DHT22;4024;52.172;5.378;2022-12-18T15:31:29;2.40;99.90
7958;DHT22;4024;52.172;5.378;2022-12-18T15:36:22;2.40;99.90
7958;DHT22;4024;52.172;5.378;2022-12-18T15:38:53;2.40;99.90
7958;DHT22;4024;52.172;5.378;2022-12-18T15:41:21;2.40;99.90
7958;DHT22;4024;52.172;5.378;2022-12-18T15:43:50;2.40;99.90
7958;DHT22;4024;52.172;5.378;2022-12-18T15:46:26;2.40;99.90
7958;DHT22;4024;52.172;5.378;2022-12-18T15:48:56;2.40;99.90
7958;DHT22;4024;52.172;5.378;2022-12-18T15:51:28;2.40;99.90
7958;DHT22;4024;52.172;5.378;2022-12-18T15:53:56;2.40;99.90
7958;DHT22;4024;52.172;5.378;2022-12-18T15:56:23;2.40;99.90
7958;DHT22;4024;52.172;5.378;2022-12-18T15:59:18;2.40;99.90
7958;DHT22;4024;52.172;5.378;2022-12-18T16:01:48;2.40;99.90
7958;DHT22;4024;52.172;5.378;2022-12-18T16:04:17;2.40;99.90
7958;DHT22;4024;52.172;5.378;2022-12-18T16:06:43;2.50;99.90
7958;DHT22;4024;52.172;5.378;2022-12-18T16:09:09;2.40;99.90
7958;DHT22;4024;52.172;5.378;2022-12-18T16:11:36;2.40;99.90
7958;DHT22;4024;52.172;5.378;2022-12-18T16:14:22;2.50;99.90
7958;DHT22;4024;52.172;5.378;2022-12-18T16:16:54;2.50;99.90
7958;DHT22;4024;52.172;5.378;2022-12-18T16:19:20;2.50;99.90
7958;DHT22;4024;52.172;5.378;2022-12-18T16:21:50;2.40;99.90
7958;DHT22;4024;52.172;5.378;2022-12-18T16:24:19;2.40;99.90
7958;DHT22;4024;52.172;5.378;2022-12-18T16:26:47;2.40;99.90
7958;DHT22;4024;52.172;5.378;2022-12-18T16:29:14;2.50;99.90
7958;DHT22;4024;52.172;5.378;2022-12-18T16:31:39;2.50;99.90
7958;DHT22;4024;52.172;5.378;2022-12-18T16:34:28;2.40;99.90
7958;DHT22;4024;52.172;5.378;2022-12-18T16:36:59;2.40;99.90
7958;DHT22;4024;52.172;5.378;2022-12-18T16:39:26;2.50;99.90
7958;DHT22;4024;52.172;5.378;2022-12-18T16:41:52;2.50;99.90
7958;DHT22;4024;52.172;5.378;2022-12-18T16:44:18;2.50;99.90
7958;DHT22;4024;52.172;5.378;2022-12-18T16:46:44;2.40;99.90
7958;DHT22;4024;52.172;5.378;2022-12-18T16:49:17;2.50;99.90
7958;DHT22;4024;52.172;5.378;2022-12-18T16:51:45;2.50;99.90
7958;DHT22;4024;52.172;5.378;2022-12-18T16:54:11;2.50;99.90
7958;DHT22;4024;52.172;5.378;2022-12-18T16:56:37;2.50;99.90
7958;DHT22;4024;52.172;5.378;2022-12-18T16:59:03;2.50;99.90
7958;DHT22;4024;52.172;5.378;2022-12-18T17:01:31;2.50;99.90
7958;DHT22;4024;52.172;5.378;2022-12-18T17:04:00;2.50;99.90
7958;DHT22;4024;52.172;5.378;2022-12-18T17:06:27;2.50;99.90
7958;DHT22;4024;52.172;5.378;2022-12-18T17:08:57;2.50;99.90
7958;DHT22;4024;52.172;5.378;2022-12-18T17:11:24;2.50;99.90
7958;DHT22;4024;52.172;5.378;2022-12-18T17:13:51;2.50;99.90
7958;DHT22;4024;52.172;5.378;2022-12-18T17:16:16;2.50;99.90
7958;DHT22;4024;52.172;5.378;2022-12-18T17:18:42;2.50;99.90
7958;DHT22;4024;52.172;5.378;2022-12-18T17:21:09;2.60;99.90
7958;DHT22;4024;52.172;5.378;2022-12-18T17:23:35;2.50;99.90
7958;DHT22;4024;52.172;5.378;2022-12-18T17:26:03;2.50;99.90
7958;DHT22;4024;52.172;5.378;2022-12-18T17:28:32;2.60;99.90
7958;DHT22;4024;52.172;5.378;2022-12-18T17:30:58;2.60;99.90
7958;DHT22;4024;52.172;5.378;2022-12-18T17:33:24;2.60;99.90
7958;DHT22;4024;52.172;5.378;2022-12-18T17:35:49;2.60;99.90